createdAt,value
2018-12-07T00:01:53.352Z,99.90
2018-12-07T00:04:22.679Z,99.90
2018-12-07T00:06:51.854Z,99.90
2018-12-07T00:09:21.059Z,99.90
2018-12-07T00:11:50.193Z,99.90
2018-12-07T00:14:19.333Z,99.90
2018-12-07T00:16:48.513Z,99.90
2018-12-07T00:19:17.696Z,99.90
2018-12-07T00:21:46.937Z,99.90
2018-12-07T00:24:16.258Z,99.90
2018-12-07T00:26:45.416Z,99.90
2018-12-07T00:29:14.584Z,99.90
2018-12-07T00:31:43.824Z,99.90
2018-12-07T00:34:13.128Z,99.90
2018-12-07T00:36:42.315Z,99.90
2018-12-07T00:39:11.435Z,99.90
2018-12-07T00:41:40.641Z,99.90
2018-12-07T00:44:09.777Z,99.90
2018-12-07T00:46:38.993Z,99.90
2018-12-07T00:49:08.140Z,99.90
2018-12-07T00:51:37.321Z,99.90
2018-12-07T00:54:06.490Z,99.90
2018-12-07T00:56:35.677Z,99.90
2018-12-07T00:59:04.832Z,99.90
2018-12-07T01:01:34.228Z,99.90
2018-12-07T01:04:03.480Z,99.90
2018-12-07T01:06:32.632Z,99.90
2018-12-07T01:09:01.794Z,99.90
2018-12-07T01:11:31.711Z,99.90
2018-12-07T01:14:00.910Z,99.90
2018-12-07T01:16:30.069Z,99.90
2018-12-07T01:18:59.244Z,99.90
2018-12-07T01:21:28.400Z,99.90
2018-12-07T01:23:57.611Z,99.90
2018-12-07T01:26:27.519Z,99.90
2018-12-07T01:28:56.737Z,99.90
2018-12-07T01:31:25.908Z,99.90
2018-12-07T01:33:55.052Z,99.90
2018-12-07T01:36:24.215Z,99.90
2018-12-07T01:38:53.410Z,99.90
2018-12-07T01:41:22.571Z,99.90
2018-12-07T01:43:51.706Z,99.90
2018-12-07T01:46:20.862Z,99.90
2018-12-07T01:48:50.007Z,99.90
2018-12-07T01:51:19.155Z,99.90
2018-12-07T01:53:48.436Z,99.90
2018-12-07T01:56:17.599Z,99.90
2018-12-07T01:58:46.739Z,99.90
2018-12-07T02:01:15.915Z,99.90
2018-12-07T02:03:45.057Z,99.90
2018-12-07T02:06:14.247Z,99.90
2018-12-07T02:08:43.390Z,99.90
2018-12-07T02:11:12.550Z,99.90
2018-12-07T02:13:41.714Z,99.90
2018-12-07T02:16:10.868Z,99.90
2018-12-07T02:18:39.988Z,99.90
2018-12-07T02:21:09.115Z,99.90
2018-12-07T02:23:38.280Z,99.90
2018-12-07T02:26:07.429Z,99.90
2018-12-07T02:28:36.580Z,99.90
2018-12-07T02:31:05.723Z,99.90
2018-12-07T02:33:34.920Z,99.90
2018-12-07T02:36:04.168Z,99.90
2018-12-07T02:38:33.330Z,99.90
2018-12-07T02:41:02.490Z,99.90
2018-12-07T02:43:32.276Z,99.90
2018-12-07T02:46:01.474Z,99.90
2018-12-07T02:48:30.645Z,99.90
2018-12-07T02:50:59.815Z,99.90
2018-12-07T02:53:28.951Z,99.90
2018-12-07T02:55:58.103Z,99.90
2018-12-07T02:58:27.279Z,99.90
2018-12-07T03:00:56.523Z,99.90
2018-12-07T03:03:25.693Z,99.90
2018-12-07T03:05:54.857Z,99.90
2018-12-07T03:08:24.071Z,99.90
2018-12-07T03:10:53.201Z,99.90
2018-12-07T03:13:22.320Z,99.90
2018-12-07T03:15:51.445Z,99.90
2018-12-07T03:18:28.417Z,99.90
2018-12-07T03:20:57.800Z,99.90
2018-12-07T03:23:27.172Z,99.90
2018-12-07T03:25:56.339Z,99.90
2018-12-07T03:28:25.499Z,99.90
2018-12-07T03:30:54.649Z,99.90
2018-12-07T03:33:23.818Z,99.90
2018-12-07T03:35:52.976Z,99.90
2018-12-07T03:38:22.140Z,99.90
2018-12-07T03:40:51.300Z,99.90
2018-12-07T03:43:20.463Z,99.90
2018-12-07T03:45:49.611Z,99.90
2018-12-07T03:48:18.752Z,99.90
2018-12-07T03:50:47.875Z,99.90
2018-12-07T03:53:17.107Z,99.90
2018-12-07T03:55:46.355Z,99.90
2018-12-07T03:58:15.480Z,99.90
2018-12-07T04:00:44.615Z,99.90
2018-12-07T04:03:13.757Z,99.90
2018-12-07T04:05:42.909Z,99.90
2018-12-07T04:08:12.048Z,99.90
2018-12-07T04:10:41.282Z,99.90
2018-12-07T04:13:10.413Z,99.90
2018-12-07T04:15:39.552Z,99.90
2018-12-07T04:18:08.677Z,99.90
2018-12-07T04:20:37.827Z,99.90
2018-12-07T04:23:06.971Z,99.90
2018-12-07T04:25:36.824Z,99.90
2018-12-07T04:28:05.969Z,99.90
2018-12-07T04:30:35.135Z,99.90
2018-12-07T04:33:04.428Z,99.90
2018-12-07T04:35:33.598Z,99.90
2018-12-07T04:38:02.772Z,99.90
2018-12-07T04:40:31.922Z,99.90
2018-12-07T04:43:01.090Z,99.90
2018-12-07T04:45:30.268Z,99.90
2018-12-07T04:47:59.461Z,99.90
2018-12-07T04:50:28.584Z,99.90
2018-12-07T04:52:57.741Z,99.90
2018-12-07T04:55:26.892Z,99.90
2018-12-07T04:57:56.552Z,99.90
2018-12-07T05:00:25.744Z,99.90
2018-12-07T05:02:54.991Z,99.90
2018-12-07T05:05:25.001Z,99.90
2018-12-07T05:07:54.121Z,99.90
2018-12-07T05:10:23.319Z,99.90
2018-12-07T05:12:52.454Z,99.90
2018-12-07T05:15:21.612Z,99.90
2018-12-07T05:17:50.820Z,99.90
2018-12-07T05:20:19.942Z,99.90
2018-12-07T05:22:49.077Z,99.90
2018-12-07T05:25:18.232Z,99.90
2018-12-07T05:27:47.387Z,99.90
2018-12-07T05:30:16.545Z,99.90
2018-12-07T05:32:45.771Z,99.90
2018-12-07T05:35:15.037Z,99.90
2018-12-07T05:37:44.223Z,99.90
2018-12-07T05:40:13.429Z,99.90
2018-12-07T05:42:42.565Z,99.90
2018-12-07T05:45:11.559Z,99.90
2018-12-07T05:47:40.703Z,99.90
2018-12-07T05:50:10.098Z,99.90
2018-12-07T05:52:39.243Z,99.90
2018-12-07T05:55:08.375Z,99.90
2018-12-07T05:57:37.517Z,99.90
2018-12-07T06:00:08.069Z,99.90
2018-12-07T06:02:37.261Z,99.90
2018-12-07T06:05:08.949Z,99.90
2018-12-07T06:07:38.106Z,99.90
2018-12-07T06:10:07.305Z,99.90
2018-12-07T06:12:36.459Z,99.90
2018-12-07T06:15:06.704Z,99.90
2018-12-07T06:17:37.061Z,99.90
2018-12-07T06:20:06.388Z,99.90
2018-12-07T06:22:35.566Z,99.90
2018-12-07T06:25:05.108Z,99.90
2018-12-07T06:27:34.247Z,99.90
2018-12-07T06:30:03.526Z,99.90
2018-12-07T06:32:36.177Z,99.90
2018-12-07T06:35:03.906Z,99.90
2018-12-07T06:37:33.040Z,99.90
2018-12-07T06:40:02.209Z,99.90
2018-12-07T06:42:31.371Z,99.90
2018-12-07T06:45:00.691Z,99.90
2018-12-07T06:47:29.832Z,99.90
2018-12-07T06:49:58.991Z,99.90
2018-12-07T06:52:28.160Z,99.90
2018-12-07T06:54:57.333Z,99.90
2018-12-07T06:57:26.493Z,99.90
2018-12-07T06:59:55.656Z,99.90
2018-12-07T07:02:24.873Z,99.90
2018-12-07T07:04:54.054Z,99.90
2018-12-07T07:07:23.206Z,99.90
2018-12-07T07:09:52.367Z,99.90
2018-12-07T07:12:21.555Z,99.90
2018-12-07T07:14:50.788Z,99.90
2018-12-07T07:17:19.988Z,99.90
2018-12-07T07:19:49.164Z,99.90
2018-12-07T07:22:18.388Z,99.90
2018-12-07T07:24:47.583Z,99.90
2018-12-07T07:27:16.795Z,99.90
2018-12-07T07:29:45.973Z,99.90
2018-12-07T07:32:15.140Z,99.90
2018-12-07T07:34:44.340Z,99.90
2018-12-07T07:37:13.526Z,99.90
2018-12-07T07:39:42.715Z,99.90
2018-12-07T07:42:12.039Z,99.90
2018-12-07T07:44:41.161Z,99.90
2018-12-07T07:47:10.352Z,99.90
2018-12-07T07:49:39.472Z,99.90
2018-12-07T07:52:08.736Z,99.90
2018-12-07T07:54:37.886Z,99.90
2018-12-07T07:57:07.043Z,99.90
2018-12-07T07:59:36.215Z,99.90
2018-12-07T08:02:07.492Z,99.90
2018-12-07T08:04:36.776Z,99.90
2018-12-07T08:07:06.192Z,99.90
2018-12-07T08:09:36.221Z,99.90
2018-12-07T08:12:05.573Z,99.90
2018-12-07T08:14:34.739Z,99.90
2018-12-07T08:17:04.151Z,99.90
2018-12-07T08:19:33.404Z,99.90
2018-12-07T08:22:02.921Z,99.90
2018-12-07T08:24:32.278Z,99.90
2018-12-07T08:27:01.682Z,99.90
2018-12-07T08:29:30.916Z,99.90
2018-12-07T08:32:00.118Z,99.90
2018-12-07T08:34:29.313Z,99.90
2018-12-07T08:36:58.564Z,99.90
2018-12-07T08:39:27.804Z,99.90
2018-12-07T08:41:57.034Z,99.90
2018-12-07T08:44:26.230Z,99.90
2018-12-07T08:46:55.464Z,99.90
2018-12-07T08:49:29.956Z,99.90
2018-12-07T08:51:59.173Z,99.90
2018-12-07T08:54:28.284Z,99.80
2018-12-07T08:56:57.432Z,99.80
2018-12-07T08:59:26.591Z,99.70
2018-12-07T09:01:55.793Z,99.30
2018-12-07T09:04:25.010Z,98.90
2018-12-07T09:06:54.188Z,99.50
2018-12-07T09:09:23.463Z,98.60
2018-12-07T09:11:52.647Z,98.40
2018-12-07T09:14:21.782Z,98.80
2018-12-07T09:16:50.980Z,99.00
2018-12-07T09:19:20.188Z,98.40
2018-12-07T09:21:49.312Z,98.70
2018-12-07T09:24:18.469Z,98.60
2018-12-07T09:26:47.844Z,98.10
2018-12-07T09:29:17.074Z,98.30
2018-12-07T09:31:46.256Z,98.50
2018-12-07T09:34:15.611Z,98.30
2018-12-07T09:36:44.852Z,98.30
2018-12-07T09:39:14.280Z,98.80
2018-12-07T09:41:43.531Z,98.20
2018-12-07T09:44:12.773Z,98.80
2018-12-07T09:46:42.020Z,98.80
2018-12-07T09:49:11.305Z,98.10
2018-12-07T09:51:40.559Z,98.40
2018-12-07T09:54:09.729Z,98.30
2018-12-07T09:56:38.906Z,98.40
2018-12-07T09:59:08.064Z,98.30
2018-12-07T10:01:37.443Z,98.30
2018-12-07T10:04:06.664Z,98.50
2018-12-07T10:06:35.892Z,98.60
2018-12-07T10:09:07.656Z,98.70
2018-12-07T10:11:36.908Z,98.80
2018-12-07T10:14:06.084Z,98.30
2018-12-07T10:16:35.222Z,98.40
2018-12-07T10:19:04.448Z,98.70
2018-12-07T10:21:33.635Z,98.50
2018-12-07T10:24:02.816Z,98.70
2018-12-07T10:26:31.971Z,98.30
2018-12-07T10:29:01.148Z,98.60
2018-12-07T10:31:30.342Z,98.30
2018-12-07T10:33:59.543Z,98.60
2018-12-07T10:36:28.709Z,98.50
2018-12-07T10:38:57.950Z,98.40
2018-12-07T10:41:27.158Z,98.20
2018-12-07T10:43:56.370Z,98.60
2018-12-07T10:46:25.576Z,98.20
2018-12-07T10:48:54.751Z,98.20
2018-12-07T10:51:23.991Z,98.30
2018-12-07T10:53:53.928Z,98.00
2018-12-07T10:56:23.135Z,98.20
2018-12-07T10:58:52.328Z,98.00
2018-12-07T11:02:24.632Z,97.80
2018-12-07T11:04:59.295Z,98.20
2018-12-07T11:08:37.716Z,98.00
2018-12-07T11:11:12.307Z,97.40
2018-12-07T11:13:46.831Z,98.00
2018-12-07T11:17:20.134Z,97.30
2018-12-07T11:19:54.704Z,97.20
2018-12-07T11:22:29.316Z,97.40
2018-12-07T11:25:03.766Z,97.60
2018-12-07T11:28:38.231Z,97.30
2018-12-07T11:31:12.650Z,97.30
2018-12-07T11:33:47.916Z,96.70
2018-12-07T11:36:17.190Z,97.50
2018-12-07T11:38:47.228Z,97.00
2018-12-07T11:41:16.432Z,97.20
2018-12-07T11:43:45.574Z,97.50
2018-12-07T11:46:14.719Z,97.10
2018-12-07T11:48:43.897Z,97.20
2018-12-07T11:51:13.364Z,96.90
2018-12-07T11:53:42.772Z,97.20
2018-12-07T11:56:11.960Z,97.10
2018-12-07T11:58:41.180Z,97.20
2018-12-07T12:01:10.467Z,97.40
2018-12-07T12:03:39.639Z,97.40
2018-12-07T12:06:08.869Z,97.40
2018-12-07T12:08:38.130Z,97.00
2018-12-07T12:11:07.299Z,97.60
2018-12-07T12:13:36.499Z,97.40
2018-12-07T12:16:06.219Z,97.30
2018-12-07T12:18:35.483Z,97.40
2018-12-07T12:21:04.655Z,97.20
2018-12-07T12:23:33.837Z,96.90
2018-12-07T12:26:02.989Z,97.20
2018-12-07T12:28:32.224Z,97.20
2018-12-07T12:31:01.395Z,97.50
2018-12-07T12:33:30.596Z,97.20
2018-12-07T12:35:59.752Z,97.20
2018-12-07T12:38:28.973Z,97.80
2018-12-07T12:40:58.265Z,97.70
2018-12-07T12:43:27.403Z,97.60
2018-12-07T12:45:56.744Z,97.80
2018-12-07T12:48:25.910Z,97.40
2018-12-07T12:50:59.480Z,97.10
2018-12-07T12:53:28.816Z,97.10
2018-12-07T12:55:57.993Z,97.30
2018-12-07T12:58:27.159Z,97.70
2018-12-07T13:00:56.331Z,97.20
2018-12-07T13:03:26.369Z,97.10
2018-12-07T13:05:55.575Z,97.20
2018-12-07T13:08:24.781Z,97.40
2018-12-07T13:10:54.007Z,97.00
2018-12-07T13:13:23.166Z,97.30
2018-12-07T13:15:52.415Z,97.80
2018-12-07T13:18:21.607Z,98.40
2018-12-07T13:20:50.825Z,98.50
2018-12-07T13:23:20.020Z,99.10
2018-12-07T13:25:49.181Z,99.50
2018-12-07T13:28:18.388Z,99.90
2018-12-07T13:30:47.586Z,99.70
2018-12-07T13:33:16.793Z,99.90
2018-12-07T13:35:45.989Z,99.90
2018-12-07T13:38:15.207Z,99.90
2018-12-07T13:40:44.540Z,99.90
2018-12-07T13:43:13.981Z,99.90
2018-12-07T13:45:43.289Z,99.90
2018-12-07T13:48:12.609Z,99.90
2018-12-07T13:50:43.087Z,99.90
2018-12-07T13:53:12.404Z,99.90
2018-12-07T13:55:41.955Z,99.90
2018-12-07T13:58:11.276Z,99.90
2018-12-07T14:00:40.609Z,99.90
2018-12-07T14:03:09.808Z,99.50
2018-12-07T14:05:39.162Z,99.90
2018-12-07T14:08:08.529Z,99.90
2018-12-07T14:10:37.915Z,99.90
2018-12-07T14:13:07.417Z,99.90
2018-12-07T14:15:36.808Z,99.90
2018-12-07T14:18:06.029Z,99.50
2018-12-07T14:20:35.425Z,99.30
2018-12-07T14:23:04.730Z,98.70
2018-12-07T14:25:34.095Z,99.10
2018-12-07T14:28:03.373Z,98.70
2018-12-07T14:30:32.718Z,98.90
2018-12-07T14:33:02.018Z,98.70
2018-12-07T14:35:31.249Z,98.60
2018-12-07T14:38:00.542Z,98.50
2018-12-07T14:40:29.914Z,98.60
2018-12-07T14:42:59.214Z,98.40
2018-12-07T14:45:28.491Z,98.50
2018-12-07T14:47:57.734Z,98.30
2018-12-07T14:50:27.035Z,98.30
2018-12-07T14:52:56.550Z,97.80
2018-12-07T14:55:26.012Z,97.90
2018-12-07T14:57:55.269Z,97.70
2018-12-07T15:00:24.406Z,98.00
2018-12-07T15:02:53.908Z,98.30
2018-12-07T15:05:23.349Z,97.90
2018-12-07T15:07:52.723Z,97.70
2018-12-07T15:10:22.039Z,97.90
2018-12-07T15:12:51.356Z,97.60
2018-12-07T15:15:20.878Z,98.00
2018-12-07T15:17:50.619Z,98.00
2018-12-07T15:20:21.006Z,97.20
2018-12-07T15:22:53.634Z,97.60
2018-12-07T15:25:22.960Z,97.10
2018-12-07T15:27:52.155Z,97.30
2018-12-07T15:30:21.624Z,97.10
2018-12-07T15:32:50.957Z,96.40
2018-12-07T15:35:20.144Z,96.70
2018-12-07T15:37:50.078Z,96.30
2018-12-07T15:40:20.024Z,96.60
2018-12-07T15:42:49.441Z,96.60
2018-12-07T15:45:18.901Z,96.50
2018-12-07T15:47:48.335Z,96.80
2018-12-07T15:50:24.888Z,96.60
2018-12-07T15:52:48.824Z,96.60
2018-12-07T15:55:18.073Z,96.50
2018-12-07T15:57:47.494Z,96.80
2018-12-07T16:00:16.826Z,96.60
2018-12-07T16:02:46.075Z,96.90
2018-12-07T16:05:15.673Z,97.10
2018-12-07T16:07:45.061Z,96.80
2018-12-07T16:10:14.564Z,96.70
2018-12-07T16:12:44.882Z,96.90
2018-12-07T16:15:14.197Z,96.70
2018-12-07T16:17:43.448Z,96.80
2018-12-07T16:20:15.973Z,96.80
2018-12-07T16:22:45.351Z,96.90
2018-12-07T16:25:14.713Z,96.70
2018-12-07T16:27:44.016Z,97.10
2018-12-07T16:30:13.357Z,97.00
2018-12-07T16:32:42.928Z,96.90
2018-12-07T16:35:12.308Z,96.70
2018-12-07T16:37:41.625Z,96.60
2018-12-07T16:40:11.039Z,96.60
2018-12-07T16:42:40.493Z,96.60
2018-12-07T16:45:10.095Z,96.70
2018-12-07T16:47:39.423Z,96.60
2018-12-07T16:50:08.846Z,96.70
2018-12-07T16:52:38.098Z,96.60
2018-12-07T16:55:07.454Z,96.70
2018-12-07T16:57:37.149Z,96.30
2018-12-07T17:00:07.023Z,96.50
2018-12-07T17:02:36.378Z,96.10
2018-12-07T17:05:07.397Z,96.20
2018-12-07T17:07:36.852Z,96.30
2018-12-07T17:10:07.224Z,96.70
2018-12-07T17:12:36.594Z,96.60
2018-12-07T17:15:07.260Z,97.50
2018-12-07T17:17:36.729Z,96.80
2018-12-07T17:20:06.426Z,96.60
2018-12-07T17:22:35.942Z,96.60
2018-12-07T17:25:05.879Z,96.80
2018-12-07T17:27:35.179Z,96.20
2018-12-07T17:30:05.771Z,96.30
2018-12-07T17:32:35.152Z,96.40
2018-12-07T17:35:04.603Z,96.00
2018-12-07T17:37:33.801Z,96.30
2018-12-07T17:40:03.852Z,96.30
2018-12-07T17:42:33.184Z,96.40
2018-12-07T17:45:02.355Z,96.00
2018-12-07T17:47:31.822Z,96.30
2018-12-07T17:50:01.725Z,96.30
2018-12-07T17:52:31.231Z,96.30
2018-12-07T17:55:00.563Z,96.30
2018-12-07T17:57:29.943Z,96.40
2018-12-07T17:59:59.731Z,96.50
2018-12-07T18:02:30.752Z,96.70
2018-12-07T18:05:00.157Z,96.60
2018-12-07T18:07:29.896Z,96.90
2018-12-07T18:10:00.468Z,97.20
2018-12-07T18:12:29.813Z,97.20
2018-12-07T18:14:59.156Z,97.00
2018-12-07T18:17:28.623Z,97.40
2018-12-07T18:19:58.050Z,97.50
2018-12-07T18:22:27.586Z,97.40
2018-12-07T18:24:57.023Z,97.60
2018-12-07T18:27:26.377Z,97.40
2018-12-07T18:29:56.408Z,97.40
2018-12-07T18:32:25.763Z,97.30
2018-12-07T18:34:55.164Z,97.30
2018-12-07T18:37:24.572Z,97.50
2018-12-07T18:39:53.911Z,97.30
2018-12-07T18:42:23.514Z,97.50
2018-12-07T18:44:53.460Z,97.60
2018-12-07T18:47:22.866Z,97.60
2018-12-07T18:49:54.065Z,97.60
2018-12-07T18:52:23.284Z,97.60
2018-12-07T18:54:52.533Z,97.70
2018-12-07T18:57:21.764Z,97.90
2018-12-07T18:59:52.376Z,98.10
2018-12-07T19:02:21.805Z,98.20
2018-12-07T19:04:51.204Z,98.40
2018-12-07T19:07:20.376Z,98.50
2018-12-07T19:09:49.669Z,98.80
2018-12-07T19:12:19.801Z,98.80
2018-12-07T19:14:48.972Z,99.00
2018-12-07T19:17:18.681Z,99.10
2018-12-07T19:19:48.160Z,99.20
2018-12-07T19:22:17.387Z,99.20
2018-12-07T19:24:46.678Z,99.30
2018-12-07T19:27:16.155Z,99.50
2018-12-07T19:29:45.569Z,99.40
2018-12-07T19:32:14.888Z,99.60
2018-12-07T19:34:44.374Z,99.40
2018-12-07T19:37:13.782Z,99.60
2018-12-07T19:39:44.393Z,99.60
2018-12-07T19:42:14.196Z,99.70
2018-12-07T19:44:44.741Z,99.90
2018-12-07T19:47:14.901Z,99.90
2018-12-07T19:49:44.174Z,99.90
2018-12-07T19:52:13.978Z,99.90
2018-12-07T19:54:43.634Z,99.90
2018-12-07T19:57:12.967Z,99.90
2018-12-07T19:59:42.335Z,99.90
2018-12-07T20:02:11.651Z,99.90
2018-12-07T20:04:41.015Z,99.90
2018-12-07T20:07:10.313Z,99.90
2018-12-07T20:09:39.493Z,99.90
2018-12-07T20:12:08.751Z,99.90
2018-12-07T20:14:38.117Z,99.90
2018-12-07T20:17:07.355Z,99.90
2018-12-07T20:19:36.605Z,99.90
2018-12-07T20:22:05.824Z,99.90
2018-12-07T20:24:35.036Z,99.90
2018-12-07T20:27:04.273Z,99.90
2018-12-07T20:29:33.555Z,99.90
2018-12-07T20:32:03.011Z,99.90
2018-12-07T20:34:32.644Z,99.90
2018-12-07T20:37:02.041Z,99.90
2018-12-07T20:39:31.665Z,99.90
2018-12-07T20:42:01.094Z,99.90
2018-12-07T20:44:31.884Z,99.90
2018-12-07T20:47:01.167Z,99.90
2018-12-07T20:49:30.365Z,99.90
2018-12-07T20:52:00.159Z,99.90
2018-12-07T20:54:29.484Z,99.90
2018-12-07T20:56:58.737Z,99.90
2018-12-07T20:59:28.167Z,99.90
2018-12-07T21:01:57.724Z,99.90
2018-12-07T21:04:32.055Z,99.90
2018-12-07T21:07:49.725Z,99.90
2018-12-07T21:11:26.079Z,99.90
2018-12-07T21:14:58.671Z,99.90
2018-12-07T21:17:32.753Z,99.90
2018-12-07T21:20:34.201Z,99.90
2018-12-07T21:23:03.779Z,99.90
2018-12-07T21:25:32.908Z,99.90
2018-12-07T21:28:02.090Z,99.90
2018-12-07T21:30:59.468Z,99.90
2018-12-07T21:34:41.840Z,99.90
2018-12-07T21:37:10.984Z,99.90
2018-12-07T21:39:46.509Z,99.90
2018-12-07T21:42:15.706Z,99.90
2018-12-07T21:44:45.298Z,99.90
2018-12-07T21:47:14.547Z,99.90
2018-12-07T21:49:49.141Z,99.90
2018-12-07T21:52:25.432Z,99.90
2018-12-07T21:54:54.992Z,99.90
2018-12-07T21:57:24.432Z,99.90
2018-12-07T21:59:53.916Z,99.90
2018-12-07T22:02:23.121Z,99.90
2018-12-07T22:04:52.542Z,99.90
2018-12-07T22:07:21.967Z,99.90
2018-12-07T22:09:51.133Z,99.90
2018-12-07T22:12:20.533Z,99.90
2018-12-07T22:14:50.210Z,99.90
2018-12-07T22:17:19.459Z,99.90
2018-12-07T22:19:48.699Z,99.90
2018-12-07T22:22:18.159Z,99.90
2018-12-07T22:24:47.613Z,99.90
2018-12-07T22:27:16.768Z,99.50
2018-12-07T22:29:46.192Z,99.90
2018-12-07T22:32:15.697Z,99.90
2018-12-07T22:34:45.023Z,99.90
2018-12-07T22:37:14.445Z,99.90
2018-12-07T22:39:44.671Z,99.90
2018-12-07T22:42:14.190Z,99.90
2018-12-07T22:44:43.550Z,99.90
2018-12-07T22:47:12.949Z,99.90
2018-12-07T22:49:42.289Z,99.90
2018-12-07T22:52:11.481Z,99.70
2018-12-07T22:54:40.788Z,99.70
2018-12-07T22:57:10.004Z,99.70
2018-12-07T22:59:39.228Z,99.20
2018-12-07T23:02:08.428Z,99.10
2018-12-07T23:04:37.724Z,99.20
2018-12-07T23:07:06.884Z,98.90
2018-12-07T23:09:36.484Z,98.60
2018-12-07T23:12:05.889Z,98.70
2018-12-07T23:14:35.082Z,98.90
2018-12-07T23:17:04.350Z,98.50
2018-12-07T23:19:33.603Z,98.60
2018-12-07T23:22:02.753Z,98.40
2018-12-07T23:24:31.921Z,98.30
2018-12-07T23:27:01.072Z,97.90
2018-12-07T23:29:30.371Z,98.10
2018-12-07T23:31:59.673Z,98.00
2018-12-07T23:34:28.866Z,97.80
2018-12-07T23:36:58.266Z,98.10
2018-12-07T23:39:27.476Z,98.10
2018-12-07T23:41:56.630Z,97.70
2018-12-07T23:44:25.828Z,97.60
2018-12-07T23:46:55.001Z,97.70
2018-12-07T23:49:24.172Z,97.10
2018-12-07T23:51:53.312Z,97.80
2018-12-07T23:54:22.479Z,97.20
2018-12-07T23:56:51.624Z,97.50
2018-12-07T23:59:20.783Z,97.30
